Time;durP1;ratioP1;P1;durP2;ratioP2;P2;SDS_P1;SDS_P2;PMS_P1;PMS_P2;Temp;Humidity;BMP_temperature;BMP_pressure;BME280_temperature;BME280_humidity;BME280_pressure;Samples;Min_cycle;Max_cycle;Signal;HPM_P1;HPM_P2
2021/01/29 00:00:13;;;;;;;;;;;;;;;20.14;47.36;99974.75;2036916;29;3954;-70
2021/01/29 00:01:14;;;;;;;;;;;;;;;20.14;47.41;99974.75;2040276;29;4239;-71
2021/01/29 00:02:15;;;;;;;;;;;;;;;20.15;47.43;99970.72;2041325;29;3862;-72
2021/01/29 00:03:15;;;;;;;;;;;;;;;20.14;47.33;99969.06;2039781;29;4060;-72
2021/01/29 00:04:16;;;;;;;;;;;;;;;20.14;47.46;99974.75;2039066;29;4180;-71
2021/01/29 00:05:17;;;;;;;;;;;;;;;20.14;47.40;99977.59;2039052;29;3787;-70
2021/01/29 00:06:18;;;;;;;;;;;;;;;20.14;47.47;99981.25;2042850;29;5074;-70
2021/01/29 00:07:18;;;;;;;;;;;;;;;20.14;47.34;99978.41;2039030;29;3895;-70
2021/01/29 00:08:19;;;;;;;;;;;;;;;20.16;47.50;99995.09;2042337;29;4069;-72
2021/01/29 00:09:20;;;;;;;;;;;;;;;20.15;47.46;99987.75;2040955;29;4266;-70
2021/01/29 00:10:21;;;;;;;;;;;;;;;20.14;47.39;99986.94;2043308;29;3930;-69
2021/01/29 00:11:22;;;;;;;;;;;;;;;20.15;47.48;99988.59;2042363;29;3906;-69
2021/01/29 00:12:24;;;;;;;;;;;;;;;20.16;47.46;99989.41;2041192;28;3883;-69
2021/01/29 00:13:25;;;;;;;;;;;;;;;20.16;47.47;99983.75;2041061;29;5058;-71
2021/01/29 00:14:26;;;;;;;;;;;;;;;20.15;47.50;99982.91;2038164;29;4231;-70
2021/01/29 00:15:27;;;;;;;;;;;;;;;20.17;47.46;99991.88;2037917;29;3894;-70
2021/01/29 00:16:27;;;;;;;;;;;;;;;20.17;47.51;99993.91;2042893;29;4029;-69
2021/01/29 00:17:28;;;;;;;;;;;;;;;20.17;47.61;99993.91;2040402;29;4048;-71
2021/01/29 00:18:29;;;;;;;;;;;;;;;20.17;47.65;99993.91;2040384;29;3987;-71
2021/01/29 00:19:30;;;;;;;;;;;;;;;20.17;47.53;99996.72;2043540;29;4026;-70
2021/01/29 00:20:31;;;;;;;;;;;;;;;20.17;47.53;99991.06;2039550;29;3865;-70
2021/01/29 00:21:32;;;;;;;;;;;;;;;20.17;47.53;99991.06;2038651;29;3898;-71
2021/01/29 00:22:32;;;;;;;;;;;;;;;20.17;47.57;99986.19;2037483;29;3862;-70
2021/01/29 00:23:33;;;;;;;;;;;;;;;20.18;47.55;99984.16;2041989;29;4072;-70
2021/01/29 00:24:34;;;;;;;;;;;;;;;20.17;47.54;99979.69;2039210;29;4040;-70
2021/01/29 00:25:35;;;;;;;;;;;;;;;20.18;47.53;99981.34;2039067;29;3768;-69
2021/01/29 00:26:35;;;;;;;;;;;;;;;20.15;47.61;99979.22;2040439;29;4052;-70
2021/01/29 00:27:36;;;;;;;;;;;;;;;20.18;47.68;99978.50;2038359;28;5028;-70
2021/01/29 00:28:37;;;;;;;;;;;;;;;20.17;47.57;99974.84;2039734;29;3935;-70
2021/01/29 00:29:38;;;;;;;;;;;;;;;20.17;47.56;99972.00;2038975;29;4050;-71
2021/01/29 00:30:38;;;;;;;;;;;;;;;20.17;47.49;99974.84;2038615;28;4114;-71
2021/01/29 00:31:39;;;;;;;;;;;;;;;20.18;47.66;99975.66;2037011;29;3872;-70
2021/01/29 00:32:40;;;;;;;;;;;;;;;20.19;47.64;99977.31;2041862;29;3853;-72
2021/01/29 00:33:41;;;;;;;;;;;;;;;20.18;47.63;99972.81;2041868;29;3872;-73
2021/01/29 00:34:42;;;;;;;;;;;;;;;20.18;47.58;99972.81;2039298;29;3880;-75
2021/01/29 00:35:42;;;;;;;;;;;;;;;20.18;47.61;99964.28;2040168;29;3877;-72
2021/01/29 00:36:43;;;;;;;;;;;;;;;20.19;47.52;99965.97;2039199;29;3848;-73
2021/01/29 00:37:44;;;;;;;;;;;;;;;20.18;47.54;99965.13;2042457;29;3991;-73
2021/01/29 00:38:45;;;;;;;;;;;;;;;20.18;47.56;99965.13;2038309;29;3873;-73
2021/01/29 00:39:45;;;;;;;;;;;;;;;20.17;47.55;99963.47;2040165;29;3984;-73
2021/01/29 00:40:46;;;;;;;;;;;;;;;20.18;47.57;99967.13;2040720;28;3852;-73
2021/01/29 00:41:47;;;;;;;;;;;;;;;20.17;47.56;99962.66;2038769;29;3869;-73
2021/01/29 00:42:48;;;;;;;;;;;;;;;20.17;47.61;99966.31;2038251;28;3961;-73
2021/01/29 00:43:49;;;;;;;;;;;;;;;20.18;47.73;99969.97;2037287;29;3959;-73
2021/01/29 00:44:50;;;;;;;;;;;;;;;20.18;47.64;99967.97;2040142;29;3994;-73
2021/01/29 00:45:51;;;;;;;;;;;;;;;20.17;47.66;99968.34;2038590;29;3949;-73
2021/01/29 00:46:52;;;;;;;;;;;;;;;20.17;47.65;99966.31;2040693;29;4029;-73
2021/01/29 00:47:54;;;;;;;;;;;;;;;20.18;47.62;99972.81;2041291;29;4143;-73
2021/01/29 00:48:55;;;;;;;;;;;;;;;20.17;47.66;99971.19;2036385;29;4088;-73
2021/01/29 00:49:56;;;;;;;;;;;;;;;20.18;47.67;99972.81;2037854;29;3931;-73
2021/01/29 00:50:56;;;;;;;;;;;;;;;20.18;47.73;99978.50;2043286;29;3759;-73
2021/01/29 00:51:57;;;;;;;;;;;;;;;20.17;47.65;99974.84;2039027;29;3905;-74
2021/01/29 00:52:59;;;;;;;;;;;;;;;20.18;47.65;99969.97;2037560;29;3978;-74
2021/01/29 00:54:00;;;;;;;;;;;;;;;20.18;47.58;99969.97;2039049;28;3820;-73
2021/01/29 00:55:01;;;;;;;;;;;;;;;20.18;47.67;99972.81;2041621;28;3870;-73
2021/01/29 00:56:02;;;;;;;;;;;;;;;20.18;47.73;99979.34;2041119;29;3945;-74
2021/01/29 00:57:02;;;;;;;;;;;;;;;20.18;47.68;99972.81;2038251;29;3868;-75
2021/01/29 00:58:03;;;;;;;;;;;;;;;20.18;47.65;99975.66;2037475;29;3905;-73
2021/01/29 00:59:04;;;;;;;;;;;;;;;20.18;47.58;99972.81;2038775;29;3874;-74
2021/01/29 01:00:05;;;;;;;;;;;;;;;20.17;47.72;99974.84;2039151;29;3745;-73
2021/01/29 01:01:05;;;;;;;;;;;;;;;20.18;47.70;99967.97;2042814;29;4147;-73
2021/01/29 01:02:06;;;;;;;;;;;;;;;20.18;47.75;99970.81;2040551;29;3945;-73
2021/01/29 01:03:08;;;;;;;;;;;;;;;20.20;47.67;99961.91;2037951;29;4044;-74
2021/01/29 01:04:08;;;;;;;;;;;;;;;20.18;47.64;99964.28;2039258;29;3874;-74
2021/01/29 01:05:09;;;;;;;;;;;;;;;20.19;47.62;99966.78;2038401;29;4123;-74
2021/01/29 01:06:10;;;;;;;;;;;;;;;20.18;47.77;99959.47;2041119;29;4796;-74
2021/01/29 01:07:10;;;;;;;;;;;;;;;20.19;47.64;99965.97;2039888;28;4714;-74
2021/01/29 01:08:11;;;;;;;;;;;;;;;20.20;47.62;99967.59;2041552;29;4071;-73
2021/01/29 01:09:12;;;;;;;;;;;;;;;20.19;47.68;99963.13;2043056;28;4026;-73
2021/01/29 01:10:13;;;;;;;;;;;;;;;20.20;47.66;99959.06;2038256;29;3896;-73
2021/01/29 01:11:13;;;;;;;;;;;;;;;20.21;47.66;99966.41;2039318;29;3884;-74
2021/01/29 01:12:14;;;;;;;;;;;;;;;20.21;47.67;99957.91;2037151;29;4046;-73
2021/01/29 01:13:15;;;;;;;;;;;;;;;20.21;47.73;99969.25;2039670;29;3888;-73
2021/01/29 01:14:16;;;;;;;;;;;;;;;20.21;47.80;99963.59;2040279;29;3881;-73
2021/01/29 01:15:17;;;;;;;;;;;;;;;20.22;47.80;99968.06;2038931;28;4013;-73
2021/01/29 01:16:17;;;;;;;;;;;;;;;20.21;47.79;99964.41;2042239;29;3791;-73
2021/01/29 01:17:19;;;;;;;;;;;;;;;20.22;47.76;99959.53;2039352;29;4054;-73
2021/01/29 01:18:20;;;;;;;;;;;;;;;20.23;47.86;99967.69;2037380;29;3831;-73
2021/01/29 01:19:21;;;;;;;;;;;;;;;20.23;47.80;99961.19;2039828;29;4108;-77
2021/01/29 01:20:22;;;;;;;;;;;;;;;20.23;47.92;99961.19;2038720;29;4026;-76
2021/01/29 01:21:23;;;;;;;;;;;;;;;20.24;47.92;99965.69;2041475;28;4070;-73
2021/01/29 01:22:24;;;;;;;;;;;;;;;20.24;47.91;99962.84;2042179;29;3844;-73
2021/01/29 01:23:25;;;;;;;;;;;;;;;20.23;47.78;99961.19;2037535;29;4023;-73
2021/01/29 01:24:26;;;;;;;;;;;;;;;20.23;47.76;99962.03;2042174;28;4034;-74
2021/01/29 01:25:26;;;;;;;;;;;;;;;20.24;47.79;99968.53;2040200;28;4016;-75
2021/01/29 01:26:27;;;;;;;;;;;;;;;20.23;47.88;99964.00;2036427;28;4123;-73
2021/01/29 01:27:28;;;;;;;;;;;;;;;20.24;47.99;99960.00;2042987;29;3929;-73
2021/01/29 01:28:29;;;;;;;;;;;;;;;20.23;47.93;99956.34;2038646;29;3851;-73
2021/01/29 01:29:29;;;;;;;;;;;;;;;20.23;47.84;99961.19;2039166;29;3869;-77
2021/01/29 01:30:30;;;;;;;;;;;;;;;20.23;47.99;99953.50;2039826;28;4788;-82
2021/01/29 01:31:31;;;;;;;;;;;;;;;20.34;48.20;99956.56;2040083;29;5140;-88
2021/01/29 01:32:32;;;;;;;;;;;;;;;20.30;48.26;99964.19;2040971;28;4026;-74
2021/01/29 01:33:33;;;;;;;;;;;;;;;20.28;47.99;99958.06;2039383;29;3886;-76
2021/01/29 01:34:34;;;;;;;;;;;;;;;20.27;47.93;99955.59;2039648;28;3958;-77
2021/01/29 01:35:35;;;;;;;;;;;;;;;20.26;48.06;99954.75;2038681;29;4031;-75
2021/01/29 01:36:35;;;;;;;;;;;;;;;20.26;48.10;99960.44;2043387;29;3875;-76
2021/01/29 01:37:36;;;;;;;;;;;;;;;20.26;47.95;99951.91;2040135;28;4091;-77
2021/01/29 01:38:37;;;;;;;;;;;;;;;20.25;47.92;99955.97;2045375;29;4016;-82
2021/01/29 01:39:38;;;;;;;;;;;;;;;20.23;47.91;99959.19;2039217;28;3954;-79
2021/01/29 01:40:39;;;;;;;;;;;;;;;20.26;48.07;99957.59;2041093;29;4175;-80
2021/01/29 01:41:39;;;;;;;;;;;;;;;20.26;47.98;99960.44;2036807;29;3982;-79
2021/01/29 01:42:40;;;;;;;;;;;;;;;20.27;48.12;99961.28;2036268;29;4046;-77
2021/01/29 01:43:41;;;;;;;;;;;;;;;20.27;48.16;99959.25;2042140;29;4047;-77
2021/01/29 01:44:42;;;;;;;;;;;;;;;20.27;48.07;99955.59;2041767;29;4050;-75
2021/01/29 01:45:43;;;;;;;;;;;;;;;20.26;48.21;99951.91;2039496;29;4110;-74
2021/01/29 01:46:44;;;;;;;;;;;;;;;20.27;48.11;99962.09;2040495;28;3859;-76
2021/01/29 01:47:45;;;;;;;;;;;;;;;20.27;48.15;99955.59;2039834;29;4089;-75
2021/01/29 01:48:46;;;;;;;;;;;;;;;20.26;48.20;99951.91;2040062;29;3824;-76
2021/01/29 01:49:47;;;;;;;;;;;;;;;20.27;48.15;99959.25;2044822;28;3958;-76
2021/01/29 01:50:48;;;;;;;;;;;;;;;20.26;48.14;99946.22;2039616;29;4013;-76
2021/01/29 01:51:49;;;;;;;;;;;;;;;20.27;48.23;99949.91;2041702;28;3840;-76
2021/01/29 01:52:50;;;;;;;;;;;;;;;20.25;48.08;99951.09;2040799;28;3821;-76
2021/01/29 01:53:52;;;;;;;;;;;;;;;20.26;48.08;99963.28;2040155;29;3851;-75
2021/01/29 01:54:52;;;;;;;;;;;;;;;20.26;48.06;99949.06;2041713;29;3946;-77
2021/01/29 01:55:53;;;;;;;;;;;;;;;20.27;48.02;99952.75;2041155;29;4019;-77
2021/01/29 01:56:54;;;;;;;;;;;;;;;20.26;48.08;99951.91;2039542;29;3843;-76
2021/01/29 01:57:55;;;;;;;;;;;;;;;20.27;48.00;99961.28;2040703;28;3726;-76
2021/01/29 01:58:55;;;;;;;;;;;;;;;20.27;47.92;99964.94;2039361;29;3849;-76
2021/01/29 01:59:56;;;;;;;;;;;;;;;20.27;48.08;99955.59;2035933;29;3859;-78
2021/01/29 02:00:57;;;;;;;;;;;;;;;20.27;48.01;99956.41;2036908;29;3716;-82
2021/01/29 02:01:58;;;;;;;;;;;;;;;20.27;48.09;99947.91;2040847;28;3853;-76
2021/01/29 02:02:59;;;;;;;;;;;;;;;20.26;48.08;99954.75;2040232;29;3892;-75
2021/01/29 02:04:00;;;;;;;;;;;;;;;20.27;48.03;99950.75;2036481;29;4070;-76
2021/01/29 02:05:01;;;;;;;;;;;;;;;20.26;48.05;99943.38;2039218;29;4017;-80
2021/01/29 02:06:02;;;;;;;;;;;;;;;20.25;48.07;99942.56;2039212;28;5322;-80
2021/01/29 02:07:02;;;;;;;;;;;;;;;20.25;48.00;99938.91;2040652;29;4359;-79
2021/01/29 02:08:03;;;;;;;;;;;;;;;20.23;47.97;99932.78;2039215;29;4082;-74
2021/01/29 02:09:04;;;;;;;;;;;;;;;20.22;47.87;99934.78;2040420;29;4046;-75
2021/01/29 02:10:22;;;;;;;;;;;;;;;20.23;47.84;99932.78;2043699;29;3889;-74
2021/01/29 02:11:24;;;;;;;;;;;;;;;20.23;47.88;99935.63;2039097;29;3888;-74
2021/01/29 02:12:28;;;;;;;;;;;;;;;20.23;47.92;99935.63;2042477;28;3874;-74
2021/01/29 02:13:29;;;;;;;;;;;;;;;20.23;47.80;99944.13;2042696;28;4049;-74
2021/01/29 02:14:30;;;;;;;;;;;;;;;20.23;47.75;99941.28;2041837;29;3897;-73
2021/01/29 02:15:31;;;;;;;;;;;;;;;20.23;47.91;99938.44;2040514;29;4597;-73
2021/01/29 02:16:32;;;;;;;;;;;;;;;20.23;47.94;99932.78;2039925;29;3854;-73
2021/01/29 02:18:34;;;;;;;;;;;;;;;20.23;47.80;99933.63;2039994;29;3879;-73
2021/01/29 02:19:28;;;;;;;;;;;;;;;20.23;47.92;99927.09;2036057;29;4009;-73
2021/01/29 02:20:29;;;;;;;;;;;;;;;20.23;47.86;99927.09;2041837;29;4048;-73
2021/01/29 02:21:30;;;;;;;;;;;;;;;20.23;47.89;99927.94;2040173;28;3891;-73
2021/01/29 02:22:30;;;;;;;;;;;;;;;20.23;47.80;99922.25;2038399;29;4266;-73
2021/01/29 02:23:31;;;;;;;;;;;;;;;20.23;47.90;99927.09;2043348;29;3927;-73
2021/01/29 02:24:32;;;;;;;;;;;;;;;20.23;47.71;99915.72;2040055;29;3796;-73
2021/01/29 02:25:33;;;;;;;;;;;;;;;20.23;47.63;99921.41;2040361;28;3877;-73
2021/01/29 02:26:34;;;;;;;;;;;;;;;20.22;47.90;99914.09;2040064;29;3862;-73
2021/01/29 02:27:34;;;;;;;;;;;;;;;20.23;47.73;99912.91;2042365;28;4026;-73
2021/01/29 02:28:35;;;;;;;;;;;;;;;20.23;47.93;99912.91;2037795;29;3823;-73
2021/01/29 02:29:36;;;;;;;;;;;;;;;20.23;47.77;99910.06;2037687;29;3878;-73
2021/01/29 02:30:37;;;;;;;;;;;;;;;20.23;47.71;99907.22;2042765;29;3880;-73
2021/01/29 02:31:38;;;;;;;;;;;;;;;20.23;47.81;99915.72;2036640;29;3880;-74
2021/01/29 02:32:39;;;;;;;;;;;;;;;20.23;47.77;99910.91;2039206;29;4020;-74
2021/01/29 02:33:40;;;;;;;;;;;;;;;20.23;47.69;99904.38;2043843;28;3903;-74
2021/01/29 02:34:40;;;;;;;;;;;;;;;20.23;47.74;99904.38;2043926;28;4018;-74
2021/01/29 02:35:41;;;;;;;;;;;;;;;20.23;47.77;99905.22;2043871;29;3887;-74
2021/01/29 02:36:42;;;;;;;;;;;;;;;20.23;47.78;99901.53;2043657;29;3916;-74
2021/01/29 02:37:43;;;;;;;;;;;;;;;20.23;47.87;99893.00;2040005;29;3932;-74
2021/01/29 02:38:44;;;;;;;;;;;;;;;20.24;47.86;99906.03;2044075;29;3879;-74
2021/01/29 02:39:44;;;;;;;;;;;;;;;20.23;47.86;99907.22;2039781;29;3885;-74
2021/01/29 02:40:45;;;;;;;;;;;;;;;20.23;47.69;99901.53;2043207;28;4061;-74
2021/01/29 02:41:46;;;;;;;;;;;;;;;20.23;47.86;99898.69;2043012;29;3829;-74
2021/01/29 02:42:48;;;;;;;;;;;;;;;20.23;47.75;99895.84;2043316;29;3908;-74
2021/01/29 02:43:49;;;;;;;;;;;;;;;20.23;47.88;99898.69;2040200;28;3903;-74
2021/01/29 02:44:50;;;;;;;;;;;;;;;20.22;47.97;99899.91;2042407;29;3921;-74
2021/01/29 02:45:51;;;;;;;;;;;;;;;20.23;47.86;99904.38;2043579;29;3819;-74
2021/01/29 02:46:52;;;;;;;;;;;;;;;20.24;47.90;99904.00;2042500;29;3980;-73
2021/01/29 02:47:53;;;;;;;;;;;;;;;20.22;47.89;99903.56;2039094;29;4025;-73
2021/01/29 02:48:54;;;;;;;;;;;;;;;20.23;47.90;99893.00;2039924;29;3970;-73
2021/01/29 02:49:54;;;;;;;;;;;;;;;20.23;47.91;99893.88;2042120;29;3857;-73
2021/01/29 02:50:55;;;;;;;;;;;;;;;20.23;47.93;99896.69;2043333;29;3991;-74
2021/01/29 02:51:56;;;;;;;;;;;;;;;20.23;47.99;99896.69;2041872;29;4010;-73
2021/01/29 02:52:57;;;;;;;;;;;;;;;20.26;47.91;99897.94;2042776;29;3774;-73
2021/01/29 02:53:57;;;;;;;;;;;;;;;20.26;47.90;99900.78;2042907;28;4616;-74
2021/01/29 02:54:58;;;;;;;;;;;;;;;20.25;48.08;99899.16;2040876;29;3791;-74
2021/01/29 02:55:59;;;;;;;;;;;;;;;20.27;48.02;99898.78;2039415;29;4188;-74
2021/01/29 02:56:59;;;;;;;;;;;;;;;20.26;48.02;99903.63;2039118;28;3891;-75
2021/01/29 02:58:00;;;;;;;;;;;;;;;20.27;48.11;99908.13;2042035;28;3789;-74
2021/01/29 02:59:01;;;;;;;;;;;;;;;20.27;48.17;99910.16;2040090;28;3898;-73
2021/01/29 03:00:02;;;;;;;;;;;;;;;20.27;48.05;99898.78;2038448;29;4048;-73
2021/01/29 03:01:03;;;;;;;;;;;;;;;20.26;48.19;99906.47;2040360;29;4047;-73
2021/01/29 03:02:03;;;;;;;;;;;;;;;20.28;48.10;99903.28;2038840;29;4045;-72
2021/01/29 03:03:04;;;;;;;;;;;;;;;20.27;48.11;99899.63;2039489;29;3999;-73
2021/01/29 03:04:06;;;;;;;;;;;;;;;20.28;48.19;99906.13;2038602;29;3929;-73
2021/01/29 03:05:07;;;;;;;;;;;;;;;20.28;48.21;99908.94;2038551;29;5311;-73
2021/01/29 03:06:07;;;;;;;;;;;;;;;20.27;48.30;99902.47;2037946;29;4033;-73
2021/01/29 03:07:08;;;;;;;;;;;;;;;20.28;48.27;99906.13;2039141;29;3879;-73
2021/01/29 03:08:09;;;;;;;;;;;;;;;20.28;48.27;99908.94;2041631;29;3925;-72
2021/01/29 03:09:10;;;;;;;;;;;;;;;20.28;48.25;99900.44;2039902;29;3891;-72
2021/01/29 03:10:10;;;;;;;;;;;;;;;20.27;48.28;99899.63;2041705;28;3869;-73
2021/01/29 03:11:11;;;;;;;;;;;;;;;20.28;48.23;99894.75;2044639;29;3813;-73
2021/01/29 03:12:12;;;;;;;;;;;;;;;20.27;48.41;99896.78;2039225;28;5099;-72
2021/01/29 03:13:13;;;;;;;;;;;;;;;20.28;48.32;99887.03;2041459;29;3878;-72
2021/01/29 03:14:13;;;;;;;;;;;;;;;20.29;48.44;99885.88;2039714;29;3885;-73
2021/01/29 03:15:14;;;;;;;;;;;;;;;20.28;48.32;99883.38;2039680;29;3883;-74
2021/01/29 03:16:15;;;;;;;;;;;;;;;20.28;48.45;99878.53;2042308;29;3917;-72
2021/01/29 03:17:16;;;;;;;;;;;;;;;20.27;48.42;99876.91;2039578;29;3899;-73
2021/01/29 03:18:18;;;;;;;;;;;;;;;20.28;48.42;99875.69;2039111;29;3949;-73
2021/01/29 03:19:18;;;;;;;;;;;;;;;20.28;48.39;99869.19;2040264;29;3864;-72
2021/01/29 03:20:19;;;;;;;;;;;;;;;20.27;48.29;99871.22;2039585;28;3873;-73
2021/01/29 03:21:20;;;;;;;;;;;;;;;20.27;48.41;99865.53;2038962;29;3936;-72
2021/01/29 03:22:21;;;;;;;;;;;;;;;20.28;48.34;99866.34;2039219;29;3865;-73
2021/01/29 03:23:21;;;;;;;;;;;;;;;20.27;48.37;99868.38;2038968;29;3982;-71
2021/01/29 03:24:23;;;;;;;;;;;;;;;20.28;48.33;99863.50;2039723;28;3891;-73
2021/01/29 03:25:24;;;;;;;;;;;;;;;20.28;48.35;99870.00;2043094;28;4181;-73
2021/01/29 03:26:25;;;;;;;;;;;;;;;20.27;48.46;99868.38;2041423;29;3869;-73
2021/01/29 03:27:25;;;;;;;;;;;;;;;20.27;48.38;99868.38;2039874;29;3829;-73
2021/01/29 03:28:26;;;;;;;;;;;;;;;20.27;48.37;99865.53;2038690;28;3947;-71
2021/01/29 03:29:27;;;;;;;;;;;;;;;20.27;48.38;99874.06;2042060;29;4099;-71
2021/01/29 03:30:28;;;;;;;;;;;;;;;20.28;48.38;99869.19;2038739;29;3930;-71
2021/01/29 03:31:29;;;;;;;;;;;;;;;20.27;48.43;99868.38;2038726;29;3838;-72
2021/01/29 03:32:30;;;;;;;;;;;;;;;20.27;48.45;99857.00;2041536;29;3888;-71
2021/01/29 03:33:31;;;;;;;;;;;;;;;20.27;48.35;99859.84;2041202;28;4073;-71
2021/01/29 03:34:32;;;;;;;;;;;;;;;20.28;48.38;99863.50;2031447;29;3886;-73
2021/01/29 03:35:33;;;;;;;;;;;;;;;20.27;48.35;99859.84;2033794;29;3934;-72
2021/01/29 03:36:36;;;;;;;;;;;;;;;20.25;48.34;99857.38;2038804;28;4923;-73
2021/01/29 03:37:37;;;;;;;;;;;;;;;20.27;48.43;99859.03;2031522;29;3930;-73
2021/01/29 03:38:38;;;;;;;;;;;;;;;20.27;48.50;99859.84;2033871;29;3883;-73
2021/01/29 03:39:38;;;;;;;;;;;;;;;20.27;48.31;99856.19;2043473;29;4018;-73
2021/01/29 03:40:39;;;;;;;;;;;;;;;20.28;48.34;99855.00;2040273;29;3848;-73
2021/01/29 03:41:40;;;;;;;;;;;;;;;20.27;48.50;99859.03;2038619;29;4032;-73
2021/01/29 03:42:41;;;;;;;;;;;;;;;20.27;48.43;99853.34;2040546;28;3869;-71
2021/01/29 03:43:41;;;;;;;;;;;;;;;20.27;48.47;99856.19;2038425;28;4205;-71
2021/01/29 03:44:42;;;;;;;;;;;;;;;20.26;48.33;99855.34;2039088;29;3931;-72
2021/01/29 03:45:43;;;;;;;;;;;;;;;20.26;48.34;99852.50;2038870;29;4069;-72
2021/01/29 03:46:44;;;;;;;;;;;;;;;20.25;48.46;99840.31;2041595;28;4015;-72
2021/01/29 03:47:45;;;;;;;;;;;;;;;20.25;48.39;99848.84;2040724;29;3796;-73
2021/01/29 03:48:46;;;;;;;;;;;;;;;20.31;48.63;99846.53;2038797;29;4315;-74
2021/01/29 03:49:47;;;;;;;;;;;;;;;20.29;48.46;99846.09;2037276;29;4027;-72
2021/01/29 03:50:48;;;;;;;;;;;;;;;20.30;48.57;99839.22;2042085;29;4023;-74
2021/01/29 03:51:49;;;;;;;;;;;;;;;20.29;48.51;99846.09;2040557;29;3871;-73
2021/01/29 03:52:50;;;;;;;;;;;;;;;20.26;48.57;99835.47;2038357;29;3849;-74
2021/01/29 03:53:51;;;;;;;;;;;;;;;20.28;48.40;99841.59;2035267;29;3983;-73
2021/01/29 03:54:52;;;;;;;;;;;;;;;20.28;48.50;99838.75;2041398;29;3847;-73
2021/01/29 03:55:53;;;;;;;;;;;;;;;20.28;48.51;99833.09;2037845;28;4035;-74
2021/01/29 03:56:54;;;;;;;;;;;;;;;20.29;48.39;99833.91;2038561;29;4019;-74
2021/01/29 03:57:54;;;;;;;;;;;;;;;20.28;48.50;99820.91;2039929;29;3881;-74
2021/01/29 03:58:55;;;;;;;;;;;;;;;20.29;48.54;99828.22;2041990;28;3885;-73
2021/01/29 03:59:56;;;;;;;;;;;;;;;20.29;48.39;99819.69;2039057;29;3866;-74
2021/01/29 04:00:57;;;;;;;;;;;;;;;20.29;48.38;99811.19;2041757;29;3800;-74
2021/01/29 04:01:58;;;;;;;;;;;;;;;20.29;48.53;99811.19;2040114;28;3750;-74
2021/01/29 04:02:58;;;;;;;;;;;;;;;20.28;48.52;99809.53;2037836;29;4175;-74
2021/01/29 04:03:59;;;;;;;;;;;;;;;20.29;48.52;99808.34;2040627;29;4189;-75
2021/01/29 04:05:00;;;;;;;;;;;;;;;20.29;48.33;99802.66;2041456;29;3974;-76
2021/01/29 04:06:01;;;;;;;;;;;;;;;20.29;48.47;99805.50;2039302;29;4086;-74
2021/01/29 04:07:02;;;;;;;;;;;;;;;20.28;48.49;99790.47;2040169;28;4085;-74
2021/01/29 04:08:02;;;;;;;;;;;;;;;20.30;48.37;99798.63;2040441;29;3851;-73
2021/01/29 04:09:03;;;;;;;;;;;;;;;20.30;48.50;99790.13;2038909;29;4374;-73
2021/01/29 04:10:04;;;;;;;;;;;;;;;20.29;48.38;99794.97;2039807;29;3879;-74
2021/01/29 04:11:05;;;;;;;;;;;;;;;20.30;48.38;99792.97;2042133;29;3907;-74
2021/01/29 04:12:06;;;;;;;;;;;;;;;20.30;48.47;99784.44;2038195;28;4020;-74
2021/01/29 04:13:06;;;;;;;;;;;;;;;20.29;48.49;99789.31;2038342;28;3939;-73
2021/01/29 04:14:07;;;;;;;;;;;;;;;20.29;48.41;99786.47;2039228;29;3955;-74
2021/01/29 04:15:08;;;;;;;;;;;;;;;20.30;48.45;99790.13;2039019;29;3870;-72
2021/01/29 04:16:09;;;;;;;;;;;;;;;20.30;48.43;99788.09;2038450;28;4079;-72
2021/01/29 04:17:10;;;;;;;;;;;;;;;20.30;48.40;99787.28;2039661;29;4024;-72
2021/01/29 04:18:11;;;;;;;;;;;;;;;20.29;48.40;99789.31;2039193;28;3765;-72
2021/01/29 04:19:11;;;;;;;;;;;;;;;20.29;48.48;99788.47;2040748;28;3874;-72
2021/01/29 04:20:12;;;;;;;;;;;;;;;20.30;48.60;99785.25;2039482;29;4016;-71
2021/01/29 04:21:13;;;;;;;;;;;;;;;20.31;48.49;99791.75;2039208;29;4411;-72
2021/01/29 04:22:13;;;;;;;;;;;;;;;20.30;48.41;99781.59;2038983;28;4219;-71
2021/01/29 04:23:14;;;;;;;;;;;;;;;20.30;48.42;99782.41;2041959;29;3901;-72
2021/01/29 04:24:15;;;;;;;;;;;;;;;20.30;48.40;99784.44;2038018;28;4044;-71
2021/01/29 04:25:16;;;;;;;;;;;;;;;20.30;48.44;99784.44;2040022;28;4112;-72
2021/01/29 04:26:17;;;;;;;;;;;;;;;20.29;48.45;99777.09;2041844;29;3902;-71
2021/01/29 04:27:17;;;;;;;;;;;;;;;20.29;48.37;99780.78;2038879;28;4031;-71
2021/01/29 04:28:18;;;;;;;;;;;;;;;20.29;48.43;99779.94;2037660;29;3792;-72
2021/01/29 04:29:19;;;;;;;;;;;;;;;20.29;48.37;99775.09;2041849;29;3939;-72
2021/01/29 04:30:20;;;;;;;;;;;;;;;20.29;48.43;99769.41;2038747;29;3888;-72
2021/01/29 04:31:20;;;;;;;;;;;;;;;20.29;48.36;99758.06;2041067;28;3981;-72
2021/01/29 04:32:22;;;;;;;;;;;;;;;20.28;48.47;99747.88;2040202;29;4087;-72
2021/01/29 04:33:23;;;;;;;;;;;;;;;20.28;48.32;99747.88;2041106;28;4061;-72
2021/01/29 04:34:23;;;;;;;;;;;;;;;20.29;48.42;99743.00;2041153;29;3869;-72
2021/01/29 04:35:24;;;;;;;;;;;;;;;20.29;48.31;99738.19;2041188;29;3913;-71
2021/01/29 04:36:25;;;;;;;;;;;;;;;20.30;48.27;99736.16;2040011;29;3903;-73
2021/01/29 04:37:26;;;;;;;;;;;;;;;20.28;48.42;99739.34;2042231;28;3856;-73
2021/01/29 04:38:27;;;;;;;;;;;;;;;20.28;48.45;99733.69;2040138;28;3860;-74
2021/01/29 04:39:28;;;;;;;;;;;;;;;20.28;48.22;99738.53;2039943;29;4091;-74
2021/01/29 04:40:29;;;;;;;;;;;;;;;20.28;48.33;99735.69;2040330;29;3877;-73
2021/01/29 04:41:31;;;;;;;;;;;;;;;20.28;48.32;99739.34;2039124;29;3914;-76
2021/01/29 04:42:32;;;;;;;;;;;;;;;20.29;48.42;99737.34;2038276;29;4301;-73
2021/01/29 04:43:32;;;;;;;;;;;;;;;20.31;48.62;99734.94;2038560;29;3866;-74
2021/01/29 04:44:33;;;;;;;;;;;;;;;20.31;48.43;99732.09;2039822;29;3893;-73
2021/01/29 04:45:34;;;;;;;;;;;;;;;20.28;48.46;99736.53;2038597;29;4008;-74
2021/01/29 04:46:35;;;;;;;;;;;;;;;20.29;48.41;99749.53;2039544;29;3870;-73
2021/01/29 04:47:36;;;;;;;;;;;;;;;20.28;48.41;99739.34;2043428;29;3974;-73
2021/01/29 04:48:37;;;;;;;;;;;;;;;20.28;48.36;99742.19;2037448;29;4081;-73
2021/01/29 04:49:37;;;;;;;;;;;;;;;20.27;48.36;99740.56;2038531;28;3920;-73
2021/01/29 04:50:38;;;;;;;;;;;;;;;20.28;48.39;99738.53;2040981;29;3897;-73
2021/01/29 04:51:39;;;;;;;;;;;;;;;20.28;48.37;99732.84;2038531;29;3881;-73
2021/01/29 04:52:39;;;;;;;;;;;;;;;20.25;48.34;99737.28;2039709;29;3949;-73
2021/01/29 04:53:40;;;;;;;;;;;;;;;20.26;48.34;99730.38;2041917;29;3950;-73
2021/01/29 04:54:41;;;;;;;;;;;;;;;20.26;48.35;99727.53;2043186;28;3897;-73
2021/01/29 04:55:42;;;;;;;;;;;;;;;20.26;48.28;99719.03;2039302;28;3891;-73
2021/01/29 04:56:42;;;;;;;;;;;;;;;20.27;48.30;99722.72;2042503;29;4004;-73
2021/01/29 04:57:43;;;;;;;;;;;;;;;20.25;48.42;99715.38;2039357;29;3854;-73
2021/01/29 04:58:44;;;;;;;;;;;;;;;20.26;48.20;99704.81;2036269;28;3860;-73
2021/01/29 04:59:46;;;;;;;;;;;;;;;20.25;48.37;99700.34;2039657;29;3888;-73
2021/01/29 05:00:49;;;;;;;;;;;;;;;20.24;48.22;99698.72;2039811;29;3919;-72
2021/01/29 05:01:50;;;;;;;;;;;;;;;20.24;48.16;99695.88;2041377;29;3879;-72
2021/01/29 05:02:51;;;;;;;;;;;;;;;20.23;48.22;99686.53;2039780;29;4062;-73
2021/01/29 05:03:52;;;;;;;;;;;;;;;20.26;48.21;99684.94;2041927;29;3885;-72
2021/01/29 05:04:53;;;;;;;;;;;;;;;20.24;48.34;99679.66;2038006;29;3971;-73
2021/01/29 05:05:54;;;;;;;;;;;;;;;20.26;48.21;99676.44;2039401;29;4061;-73
2021/01/29 05:06:54;;;;;;;;;;;;;;;20.27;48.16;99682.94;2040129;29;4014;-73
2021/01/29 05:07:55;;;;;;;;;;;;;;;20.25;48.21;99675.59;2044484;29;3973;-73
2021/01/29 05:08:56;;;;;;;;;;;;;;;20.26;48.11;99670.75;2042636;29;4010;-73
2021/01/29 05:09:56;;;;;;;;;;;;;;;20.26;48.11;99667.91;2040141;29;3927;-73
2021/01/29 05:10:57;;;;;;;;;;;;;;;20.27;48.12;99668.75;2038884;28;3673;-73
2021/01/29 05:11:58;;;;;;;;;;;;;;;20.27;48.10;99660.22;2042482;28;5240;-73
2021/01/29 05:12:59;;;;;;;;;;;;;;;20.26;48.23;99656.53;2039696;29;3889;-72
2021/01/29 05:14:00;;;;;;;;;;;;;;;20.25;48.10;99650.06;2040034;29;3826;-72
2021/01/29 05:15:00;;;;;;;;;;;;;;;20.27;48.06;99654.56;2040242;28;3861;-73
2021/01/29 05:16:01;;;;;;;;;;;;;;;20.27;48.16;99654.56;2040735;29;3930;-73
2021/01/29 05:17:02;;;;;;;;;;;;;;;20.26;48.13;99656.53;2044129;29;4050;-73
2021/01/29 05:18:03;;;;;;;;;;;;;;;20.27;48.05;99658.22;2045543;28;4030;-73
2021/01/29 05:19:04;;;;;;;;;;;;;;;20.27;48.06;99655.38;2040178;29;4947;-72
2021/01/29 05:20:04;;;;;;;;;;;;;;;20.25;47.88;99657.75;2036479;29;3906;-73
2021/01/29 05:21:05;;;;;;;;;;;;;;;20.27;48.00;99661.03;2034980;29;3880;-73
2021/01/29 05:22:06;;;;;;;;;;;;;;;20.26;48.11;99659.38;2042663;29;3897;-73